sensor_id;sensor_type;location;lat;lon;timestamp;P1;P2;P0
72031;PMS5003;49185;42.320;23.198;2023-01-29T00:01:24;6.00;6.00;3.00
72031;PMS5003;49185;42.320;23.198;2023-01-29T00:03:50;9.00;8.00;2.67
72031;PMS5003;49185;42.320;23.198;2023-01-29T00:06:16;7.50;6.50;2.75
72031;PMS5003;49185;42.320;23.198;2023-01-29T00:08:42;13.00;10.75;3.00
72031;PMS5003;49185;42.320;23.198;2023-01-29T00:11:07;14.33;10.00;4.00
72031;PMS5003;49185;42.320;23.198;2023-01-29T00:13:33;13.33;9.33;5.00
72031;PMS5003;49185;42.320;23.198;2023-01-29T00:15:59;15.00;13.00;5.00
72031;PMS5003;49185;42.320;23.198;2023-01-29T00:18:25;13.00;11.00;3.00
72031;PMS5003;49185;42.320;23.198;2023-01-29T00:20:51;13.50;10.75;3.00
72031;PMS5003;49185;42.320;23.198;2023-01-29T00:23:17;12.00;9.00;3.00
72031;PMS5003;49185;42.320;23.198;2023-01-29T00:25:43;13.00;11.00;4.75
72031;PMS5003;49185;42.320;23.198;2023-01-29T00:28:09;12.50;11.50;5.00
72031;PMS5003;49185;42.320;23.198;2023-01-29T00:30:35;14.50;14.00;5.75
72031;PMS5003;49185;42.320;23.198;2023-01-29T00:33:02;15.00;14.00;6.00
72031;PMS5003;49185;42.320;23.198;2023-01-29T00:35:28;16.00;14.00;5.25
72031;PMS5003;49185;42.320;23.198;2023-01-29T00:37:54;15.25;13.50;5.00
72031;PMS5003;49185;42.320;23.198;2023-01-29T00:40:20;16.50;15.75;5.00
72031;PMS5003;49185;42.320;23.198;2023-01-29T00:42:46;15.00;13.50;4.00
72031;PMS5003;49185;42.320;23.198;2023-01-29T00:45:11;13.00;12.00;3.33
72031;PMS5003;49185;42.320;23.198;2023-01-29T00:47:37;14.00;12.75;3.00
72031;PMS5003;49185;42.320;23.198;2023-01-29T00:50:04;10.00;8.00;3.00
72031;PMS5003;49185;42.320;23.198;2023-01-29T00:52:31;9.00;6.75;3.00
72031;PMS5003;49185;42.320;23.198;2023-01-29T00:54:57;6.00;6.00;3.00
72031;PMS5003;49185;42.320;23.198;2023-01-29T00:57:25;9.75;9.25;3.25
72031;PMS5003;49185;42.320;23.198;2023-01-29T00:59:51;9.50;7.00;3.00
72031;PMS5003;49185;42.320;23.198;2023-01-29T01:02:17;7.00;5.00;3.00
72031;PMS5003;49185;42.320;23.198;2023-01-29T01:04:44;7.00;6.75;3.00
72031;PMS5003;49185;42.320;23.198;2023-01-29T01:07:09;9.00;8.00;3.00
72031;PMS5003;49185;42.320;23.198;2023-01-29T01:09:35;10.33;10.33;3.00
72031;PMS5003;49185;42.320;23.198;2023-01-29T01:12:00;12.25;11.50;4.00
72031;PMS5003;49185;42.320;23.198;2023-01-29T01:14:26;12.67;10.67;4.00
72031;PMS5003;49185;42.320;23.198;2023-01-29T01:16:51;8.00;7.00;3.00
72031;PMS5003;49185;42.320;23.198;2023-01-29T01:19:17;6.33;6.33;3.00
72031;PMS5003;49185;42.320;23.198;2023-01-29T01:21:42;8.00;7.00;3.00
72031;PMS5003;49185;42.320;23.198;2023-01-29T01:24:08;7.00;6.33;2.00
72031;PMS5003;49185;42.320;23.198;2023-01-29T01:26:33;7.00;6.00;2.33
72031;PMS5003;49185;42.320;23.198;2023-01-29T01:28:58;9.00;7.00;3.00
72031;PMS5003;49185;42.320;23.198;2023-01-29T01:31:24;8.00;5.33;3.00
72031;PMS5003;49185;42.320;23.198;2023-01-29T01:33:49;6.00;5.00;3.00
72031;PMS5003;49185;42.320;23.198;2023-01-29T01:36:15;10.00;9.50;3.00
72031;PMS5003;49185;42.320;23.198;2023-01-29T01:38:41;10.75;10.00;3.00
72031;PMS5003;49185;42.320;23.198;2023-01-29T01:41:06;10.00;7.33;3.00
72031;PMS5003;49185;42.320;23.198;2023-01-29T01:46:18;8.75;7.75;2.25
72031;PMS5003;49185;42.320;23.198;2023-01-29T01:48:44;5.75;5.00;1.00
72031;PMS5003;49185;42.320;23.198;2023-01-29T01:51:12;10.00;7.00;3.00
72031;PMS5003;49185;42.320;23.198;2023-01-29T01:53:40;7.50;7.00;2.25
72031;PMS5003;49185;42.320;23.198;2023-01-29T01:56:15;7.00;7.00;2.25
72031;PMS5003;49185;42.320;23.198;2023-01-29T01:58:54;8.50;7.50;1.50
72031;PMS5003;49185;42.320;23.198;2023-01-29T02:01:22;10.50;9.00;3.00
72031;PMS5003;49185;42.320;23.198;2023-01-29T02:03:52;10.50;8.75;3.00
72031;PMS5003;49185;42.320;23.198;2023-01-29T02:06:21;11.50;9.50;3.00
72031;PMS5003;49185;42.320;23.198;2023-01-29T02:08:54;13.00;10.00;3.00
72031;PMS5003;49185;42.320;23.198;2023-01-29T02:11:24;12.00;10.00;3.00
72031;PMS5003;49185;42.320;23.198;2023-01-29T02:13:49;12.00;7.00;3.00
72031;PMS5003;49185;42.320;23.198;2023-01-29T02:16:16;12.67;9.33;3.00
72031;PMS5003;49185;42.320;23.198;2023-01-29T02:18:41;10.00;7.33;3.00
72031;PMS5003;49185;42.320;23.198;2023-01-29T02:21:21;9.67;7.00;3.00
72031;PMS5003;49185;42.320;23.198;2023-01-29T02:27:04;7.00;6.00;3.00
72031;PMS5003;49185;42.320;23.198;2023-01-29T02:37:53;7.50;7.00;2.00
72031;PMS5003;49185;42.320;23.198;2023-01-29T02:45:53;14.00;11.50;4.75
72031;PMS5003;49185;42.320;23.198;2023-01-29T02:48:28;14.00;12.25;3.25
72031;PMS5003;49185;42.320;23.198;2023-01-29T02:51:14;9.25;7.00;3.00
72031;PMS5003;49185;42.320;23.198;2023-01-29T02:53:56;11.00;7.00;3.00
72031;PMS5003;49185;42.320;23.198;2023-01-29T02:56:26;7.25;6.75;3.50
72031;PMS5003;49185;42.320;23.198;2023-01-29T02:59:18;11.75;10.75;3.00
72031;PMS5003;49185;42.320;23.198;2023-01-29T03:04:44;13.00;9.75;2.00
72031;PMS5003;49185;42.320;23.198;2023-01-29T03:07:21;10.00;7.00;2.75
72031;PMS5003;49185;42.320;23.198;2023-01-29T03:09:51;11.50;10.50;3.25
72031;PMS5003;49185;42.320;23.198;2023-01-29T03:12:21;21.50;19.75;8.00
72031;PMS5003;49185;42.320;23.198;2023-01-29T03:14:52;15.50;15.50;3.00
72031;PMS5003;49185;42.320;23.198;2023-01-29T03:17:18;10.33;10.33;3.00
72031;PMS5003;49185;42.320;23.198;2023-01-29T03:19:50;7.75;7.00;3.00
72031;PMS5003;49185;42.320;23.198;2023-01-29T03:22:16;7.00;6.00;3.00
72031;PMS5003;49185;42.320;23.198;2023-01-29T03:24:48;10.00;7.00;3.00
72031;PMS5003;49185;42.320;23.198;2023-01-29T03:27:19;9.00;6.50;3.00
72031;PMS5003;49185;42.320;23.198;2023-01-29T03:29:49;6.25;5.50;2.00
72031;PMS5003;49185;42.320;23.198;2023-01-29T03:32:18;12.00;10.00;4.75
72031;PMS5003;49185;42.320;23.198;2023-01-29T03:34:49;13.50;8.00;3.00
72031;PMS5003;49185;42.320;23.198;2023-01-29T03:37:32;11.00;7.50;3.00
72031;PMS5003;49185;42.320;23.198;2023-01-29T03:40:05;8.00;6.50;2.00
72031;PMS5003;49185;42.320;23.198;2023-01-29T03:45:26;9.00;6.00;3.00
72031;PMS5003;49185;42.320;23.198;2023-01-29T03:56:43;16.00;14.00;7.00
72031;PMS5003;49185;42.320;23.198;2023-01-29T03:59:24;13.00;11.00;4.00
72031;PMS5003;49185;42.320;23.198;2023-01-29T04:02:05;19.50;18.25;8.50
72031;PMS5003;49185;42.320;23.198;2023-01-29T04:04:37;17.25;15.50;7.25
72031;PMS5003;49185;42.320;23.198;2023-01-29T04:07:09;13.00;11.00;3.00
72031;PMS5003;49185;42.320;23.198;2023-01-29T04:12:35;7.00;5.25;3.00
72031;PMS5003;49185;42.320;23.198;2023-01-29T04:15:05;11.00;11.00;6.00
72031;PMS5003;49185;42.320;23.198;2023-01-29T04:17:38;14.00;12.50;4.25
72031;PMS5003;49185;42.320;23.198;2023-01-29T04:20:07;13.00;11.00;3.00
72031;PMS5003;49185;42.320;23.198;2023-01-29T04:22:34;17.25;13.25;6.50
72031;PMS5003;49185;42.320;23.198;2023-01-29T04:25:06;14.75;12.00;5.00
72031;PMS5003;49185;42.320;23.198;2023-01-29T04:27:51;14.00;11.00;4.00
72031;PMS5003;49185;42.320;23.198;2023-01-29T04:41:29;7.00;7.00;3.00
72031;PMS5003;49185;42.320;23.198;2023-01-29T04:49:31;7.00;6.25;3.00
72031;PMS5003;49185;42.320;23.198;2023-01-29T04:55:14;7.00;6.75;1.00
72031;PMS5003;49185;42.320;23.198;2023-01-29T04:57:47;6.00;6.00;1.00
72031;PMS5003;49185;42.320;23.198;2023-01-29T05:00:23;18.25;16.25;7.75
72031;PMS5003;49185;42.320;23.198;2023-01-29T05:02:52;23.00;21.00;11.00
72031;PMS5003;49185;42.320;23.198;2023-01-29T05:05:18;18.00;17.00;7.00
72031;PMS5003;49185;42.320;23.198;2023-01-29T05:07:45;11.25;9.25;2.25
72031;PMS5003;49185;42.320;23.198;2023-01-29T05:10:13;6.50;5.25;2.00
72031;PMS5003;49185;42.320;23.198;2023-01-29T05:12:42;6.00;5.25;2.50
72031;PMS5003;49185;42.320;23.198;2023-01-29T05:15:15;7.00;6.50;2.00
72031;PMS5003;49185;42.320;23.198;2023-01-29T05:17:47;7.00;6.00;2.00
72031;PMS5003;49185;42.320;23.198;2023-01-29T05:20:12;7.00;5.00;3.00
72031;PMS5003;49185;42.320;23.198;2023-01-29T05:22:38;6.33;6.00;3.00
72031;PMS5003;49185;42.320;23.198;2023-01-29T05:25:25;7.25;6.00;3.00
72031;PMS5003;49185;42.320;23.198;2023-01-29T05:27:54;6.00;4.75;3.00
72031;PMS5003;49185;42.320;23.198;2023-01-29T05:30:19;6.00;5.25;2.00
72031;PMS5003;49185;42.320;23.198;2023-01-29T05:32:45;7.00;7.00;2.67
72031;PMS5003;49185;42.320;23.198;2023-01-29T05:35:10;6.33;6.33;3.00
72031;PMS5003;49185;42.320;23.198;2023-01-29T05:37:36;8.00;7.00;3.00
72031;PMS5003;49185;42.320;23.198;2023-01-29T05:40:02;7.00;6.33;3.00
72031;PMS5003;49185;42.320;23.198;2023-01-29T05:42:27;7.00;6.00;3.00
72031;PMS5003;49185;42.320;23.198;2023-01-29T05:44:53;9.00;7.33;3.00
72031;PMS5003;49185;42.320;23.198;2023-01-29T05:47:19;10.00;9.00;3.00
72031;PMS5003;49185;42.320;23.198;2023-01-29T05:49:45;10.25;9.00;4.00
72031;PMS5003;49185;42.320;23.198;2023-01-29T05:52:10;13.33;10.33;4.00
72031;PMS5003;49185;42.320;23.198;2023-01-29T05:54:36;13.33;9.00;3.00
72031;PMS5003;49185;42.320;23.198;2023-01-29T05:57:01;14.00;10.67;4.00
72031;PMS5003;49185;42.320;23.198;2023-01-29T05:59:26;12.33;9.00;3.00
72031;PMS5003;49185;42.320;23.198;2023-01-29T06:01:52;11.00;8.00;3.00
72031;PMS5003;49185;42.320;23.198;2023-01-29T06:04:17;11.67;10.00;5.00
72031;PMS5003;49185;42.320;23.198;2023-01-29T06:06:43;15.33;14.00;8.67
72031;PMS5003;49185;42.320;23.198;2023-01-29T06:09:09;26.00;23.67;13.33
72031;PMS5003;49185;42.320;23.198;2023-01-29T06:11:35;34.00;27.50;15.75
72031;PMS5003;49185;42.320;23.198;2023-01-29T06:14:00;35.00;28.33;17.33
72031;PMS5003;49185;42.320;23.198;2023-01-29T06:16:25;35.00;29.00;17.67
72031;PMS5003;49185;42.320;23.198;2023-01-29T06:18:51;34.33;27.33;17.00
72031;PMS5003;49185;42.320;23.198;2023-01-29T06:21:16;29.00;25.00;15.33
72031;PMS5003;49185;42.320;23.198;2023-01-29T06:23:42;17.00;15.33;10.00
72031;PMS5003;49185;42.320;23.198;2023-01-29T06:26:11;20.33;19.00;11.33
72031;PMS5003;49185;42.320;23.198;2023-01-29T06:28:38;28.50;25.00;15.75
72031;PMS5003;49185;42.320;23.198;2023-01-29T06:31:04;32.00;27.00;17.00
72031;PMS5003;49185;42.320;23.198;2023-01-29T06:33:31;39.50;32.00;19.25
72031;PMS5003;49185;42.320;23.198;2023-01-29T06:36:00;38.33;30.67;18.00
72031;PMS5003;49185;42.320;23.198;2023-01-29T06:38:27;36.50;29.50;17.25
72031;PMS5003;49185;42.320;23.198;2023-01-29T06:40:53;38.00;31.00;18.33
72031;PMS5003;49185;42.320;23.198;2023-01-29T06:43:19;33.25;27.00;17.25
72031;PMS5003;49185;42.320;23.198;2023-01-29T06:45:46;25.00;23.00;14.50
72031;PMS5003;49185;42.320;23.198;2023-01-29T06:48:13;26.50;23.75;14.50
72031;PMS5003;49185;42.320;23.198;2023-01-29T06:50:38;25.67;23.00;15.00
72031;PMS5003;49185;42.320;23.198;2023-01-29T06:53:04;27.33;25.00;15.00
72031;PMS5003;49185;42.320;23.198;2023-01-29T06:55:29;28.00;25.00;15.33
72031;PMS5003;49185;42.320;23.198;2023-01-29T06:57:55;30.33;26.00;15.67
72031;PMS5003;49185;42.320;23.198;2023-01-29T07:00:20;34.00;28.00;17.00
72031;PMS5003;49185;42.320;23.198;2023-01-29T07:02:48;34.00;28.00;17.00
72031;PMS5003;49185;42.320;23.198;2023-01-29T07:05:14;27.50;24.00;15.50
72031;PMS5003;49185;42.320;23.198;2023-01-29T07:07:40;24.00;23.00;15.00
72031;PMS5003;49185;42.320;23.198;2023-01-29T07:10:05;20.00;19.33;12.00
72031;PMS5003;49185;42.320;23.198;2023-01-29T07:12:31;23.50;22.00;12.00
72031;PMS5003;49185;42.320;23.198;2023-01-29T07:14:57;21.00;19.00;11.33
72031;PMS5003;49185;42.320;23.198;2023-01-29T07:17:22;21.00;19.33;11.33
72031;PMS5003;49185;42.320;23.198;2023-01-29T07:19:48;19.67;19.00;12.00
72031;PMS5003;49185;42.320;23.198;2023-01-29T07:22:13;19.00;18.00;8.00
72031;PMS5003;49185;42.320;23.198;2023-01-29T07:24:39;19.33;18.67;7.33
72031;PMS5003;49185;42.320;23.198;2023-01-29T07:27:04;15.33;14.33;4.00
72031;PMS5003;49185;42.320;23.198;2023-01-29T07:29:29;8.67;8.00;2.00
72031;PMS5003;49185;42.320;23.198;2023-01-29T07:31:55;8.00;7.67;3.33
72031;PMS5003;49185;42.320;23.198;2023-01-29T07:34:20;8.00;7.00;3.00
72031;PMS5003;49185;42.320;23.198;2023-01-29T07:36:46;7.50;7.50;2.75
72031;PMS5003;49185;42.320;23.198;2023-01-29T07:39:11;6.00;5.00;2.00
72031;PMS5003;49185;42.320;23.198;2023-01-29T07:41:37;11.67;9.33;4.00
72031;PMS5003;49185;42.320;23.198;2023-01-29T07:44:02;13.00;12.00;5.00
72031;PMS5003;49185;42.320;23.198;2023-01-29T07:46:28;13.00;13.00;4.00
72031;PMS5003;49185;42.320;23.198;2023-01-29T07:48:53;7.67;7.67;2.00
72031;PMS5003;49185;42.320;23.198;2023-01-29T07:51:19;12.67;12.00;7.00
72031;PMS5003;49185;42.320;23.198;2023-01-29T07:53:44;37.67;31.00;18.67
72031;PMS5003;49185;42.320;23.198;2023-01-29T07:56:10;37.33;29.67;18.00
72031;PMS5003;49185;42.320;23.198;2023-01-29T07:58:35;30.67;26.00;16.00
72031;PMS5003;49185;42.320;23.198;2023-01-29T08:01:04;38.33;31.00;19.33
72031;PMS5003;49185;42.320;23.198;2023-01-29T08:03:32;22.25;21.75;11.25
72031;PMS5003;49185;42.320;23.198;2023-01-29T08:05:58;38.00;31.33;19.67
72031;PMS5003;49185;42.320;23.198;2023-01-29T08:08:23;26.33;23.33;13.67
72031;PMS5003;49185;42.320;23.198;2023-01-29T08:10:49;14.00;13.00;4.50
72031;PMS5003;49185;42.320;23.198;2023-01-29T08:13:14;9.33;8.00;3.00
72031;PMS5003;49185;42.320;23.198;2023-01-29T08:15:43;5.00;5.00;2.00
72031;PMS5003;49185;42.320;23.198;2023-01-29T08:18:09;5.00;5.00;1.00
72031;PMS5003;49185;42.320;23.198;2023-01-29T08:20:34;3.33;3.33;1.00
72031;PMS5003;49185;42.320;23.198;2023-01-29T08:23:04;15.00;13.00;7.67
72031;PMS5003;49185;42.320;23.198;2023-01-29T08:25:31;19.50;16.75;10.00
72031;PMS5003;49185;42.320;23.198;2023-01-29T08:27:57;13.00;12.25;4.00
72031;PMS5003;49185;42.320;23.198;2023-01-29T08:30:24;8.50;8.00;3.75
72031;PMS5003;49185;42.320;23.198;2023-01-29T08:32:51;10.50;10.25;7.25
72031;PMS5003;49185;42.320;23.198;2023-01-29T08:35:16;18.00;17.00;10.00
72031;PMS5003;49185;42.320;23.198;2023-01-29T08:37:42;11.00;9.33;4.00
72031;PMS5003;49185;42.320;23.198;2023-01-29T08:40:07;14.33;12.67;5.00
72031;PMS5003;49185;42.320;23.198;2023-01-29T08:42:33;9.00;9.00;3.00
72031;PMS5003;49185;42.320;23.198;2023-01-29T08:44:59;6.00;5.00;2.00
72031;PMS5003;49185;42.320;23.198;2023-01-29T08:47:24;6.33;6.00;3.00
72031;PMS5003;49185;42.320;23.198;2023-01-29T08:49:50;11.00;10.00;5.00
72031;PMS5003;49185;42.320;23.198;2023-01-29T08:52:15;13.67;10.00;5.00
72031;PMS5003;49185;42.320;23.198;2023-01-29T08:54:40;15.00;12.00;5.00
72031;PMS5003;49185;42.320;23.198;2023-01-29T08:57:06;20.33;19.33;9.33
72031;PMS5003;49185;42.320;23.198;2023-01-29T08:59:31;23.33;21.00;12.00
72031;PMS5003;49185;42.320;23.198;2023-01-29T09:01:57;26.00;25.00;16.00
72031;PMS5003;49185;42.320;23.198;2023-01-29T09:04:22;16.67;15.67;7.00
72031;PMS5003;49185;42.320;23.198;2023-01-29T09:06:47;9.33;9.33;4.00
72031;PMS5003;49185;42.320;23.198;2023-01-29T09:09:13;20.33;18.00;10.67
72031;PMS5003;49185;42.320;23.198;2023-01-29T09:11:38;16.33;16.00;7.33
72031;PMS5003;49185;42.320;23.198;2023-01-29T09:14:04;11.33;10.33;4.00
72031;PMS5003;49185;42.320;23.198;2023-01-29T09:16:29;7.00;5.00;4.00
72031;PMS5003;49185;42.320;23.198;2023-01-29T09:18:55;15.33;13.33;8.33
72031;PMS5003;49185;42.320;23.198;2023-01-29T09:21:20;9.33;7.67;4.00
72031;PMS5003;49185;42.320;23.198;2023-01-29T09:23:46;7.67;7.67;4.00
72031;PMS5003;49185;42.320;23.198;2023-01-29T09:26:11;7.00;7.00;4.00
72031;PMS5003;49185;42.320;23.198;2023-01-29T09:28:37;8.00;8.00;4.00
72031;PMS5003;49185;42.320;23.198;2023-01-29T09:31:02;10.33;9.67;5.00
72031;PMS5003;49185;42.320;23.198;2023-01-29T09:33:28;15.00;14.33;8.33
72031;PMS5003;49185;42.320;23.198;2023-01-29T09:35:53;20.00;18.00;11.00
72031;PMS5003;49185;42.320;23.198;2023-01-29T09:38:19;12.67;10.67;6.33
72031;PMS5003;49185;42.320;23.198;2023-01-29T09:43:14;16.00;13.50;7.00
72031;PMS5003;49185;42.320;23.198;2023-01-29T09:45:44;13.00;10.00;5.00
72031;PMS5003;49185;42.320;23.198;2023-01-29T09:48:25;12.00;10.00;4.50
72031;PMS5003;49185;42.320;23.198;2023-01-29T09:50:54;9.00;9.00;4.00
72031;PMS5003;49185;42.320;23.198;2023-01-29T09:56:00;21.50;18.50;9.25
72031;PMS5003;49185;42.320;23.198;2023-01-29T09:58:35;17.50;15.25;6.25
72031;PMS5003;49185;42.320;23.198;2023-01-29T10:01:15;14.50;14.00;5.00
72031;PMS5003;49185;42.320;23.198;2023-01-29T10:20:27;8.00;7.50;4.00
72031;PMS5003;49185;42.320;23.198;2023-01-29T10:25:59;13.25;12.25;5.25
72031;PMS5003;49185;42.320;23.198;2023-01-29T10:28:33;15.00;13.33;7.00
72031;PMS5003;49185;42.320;23.198;2023-01-29T10:31:13;16.00;15.00;6.00
72031;PMS5003;49185;42.320;23.198;2023-01-29T10:33:48;16.75;16.00;7.75
72031;PMS5003;49185;42.320;23.198;2023-01-29T10:39:02;15.00;15.00;6.00
72031;PMS5003;49185;42.320;23.198;2023-01-29T10:41:33;15.75;13.50;5.00
72031;PMS5003;49185;42.320;23.198;2023-01-29T10:44:13;14.25;13.50;4.00
72031;PMS5003;49185;42.320;23.198;2023-01-29T10:47:12;14.50;12.00;4.50
72031;PMS5003;49185;42.320;23.198;2023-01-29T10:55:33;17.50;16.50;9.00
72031;PMS5003;49185;42.320;23.198;2023-01-29T10:58:37;17.75;16.75;8.00
72031;PMS5003;49185;42.320;23.198;2023-01-29T11:01:09;17.00;14.50;6.00
72031;PMS5003;49185;42.320;23.198;2023-01-29T11:03:35;15.00;13.75;5.00
72031;PMS5003;49185;42.320;23.198;2023-01-29T11:11:45;19.25;16.50;8.00
72031;PMS5003;49185;42.320;23.198;2023-01-29T11:14:15;15.50;15.00;6.25
72031;PMS5003;49185;42.320;23.198;2023-01-29T11:16:58;14.50;12.50;4.00
72031;PMS5003;49185;42.320;23.198;2023-01-29T11:19:43;20.00;17.67;7.33
72031;PMS5003;49185;42.320;23.198;2023-01-29T11:22:15;24.00;20.75;11.50
72031;PMS5003;49185;42.320;23.198;2023-01-29T11:24:42;22.50;20.00;9.25
72031;PMS5003;49185;42.320;23.198;2023-01-29T11:27:21;16.00;16.00;6.75
72031;PMS5003;49185;42.320;23.198;2023-01-29T11:29:51;15.00;15.00;5.00
72031;PMS5003;49185;42.320;23.198;2023-01-29T11:34:56;18.33;17.00;7.00
72031;PMS5003;49185;42.320;23.198;2023-01-29T11:37:22;17.00;15.00;6.00
72031;PMS5003;49185;42.320;23.198;2023-01-29T11:39:55;15.00;13.00;7.00
72031;PMS5003;49185;42.320;23.198;2023-01-29T11:42:21;16.67;15.67;7.00
72031;PMS5003;49185;42.320;23.198;2023-01-29T11:44:47;18.50;16.00;6.75
72031;PMS5003;49185;42.320;23.198;2023-01-29T11:49:39;15.00;13.33;4.00
72031;PMS5003;49185;42.320;23.198;2023-01-29T11:52:14;18.50;18.25;8.50
72031;PMS5003;49185;42.320;23.198;2023-01-29T11:54:53;17.75;16.00;7.75
72031;PMS5003;49185;42.320;23.198;2023-01-29T11:59:55;18.50;18.50;8.00
72031;PMS5003;49185;42.320;23.198;2023-01-29T12:02:48;18.00;17.00;7.00
72031;PMS5003;49185;42.320;23.198;2023-01-29T12:05:23;18.00;17.00;8.00
72031;PMS5003;49185;42.320;23.198;2023-01-29T12:07:51;16.00;16.00;7.00
72031;PMS5003;49185;42.320;23.198;2023-01-29T12:10:30;18.00;15.00;7.00
72031;PMS5003;49185;42.320;23.198;2023-01-29T12:15:38;21.50;18.75;9.25
72031;PMS5003;49185;42.320;23.198;2023-01-29T12:21:04;14.50;12.50;4.50
72031;PMS5003;49185;42.320;23.198;2023-01-29T12:23:55;17.00;14.25;5.50
72031;PMS5003;49185;42.320;23.198;2023-01-29T12:34:21;13.00;12.00;4.00
72031;PMS5003;49185;42.320;23.198;2023-01-29T12:37:18;15.50;14.00;4.50
72031;PMS5003;49185;42.320;23.198;2023-01-29T12:39:46;18.00;16.00;6.00
72031;PMS5003;49185;42.320;23.198;2023-01-29T12:42:18;16.75;15.50;6.00
72031;PMS5003;49185;42.320;23.198;2023-01-29T12:44:46;15.00;13.75;4.75
72031;PMS5003;49185;42.320;23.198;2023-01-29T12:50:13;14.00;14.00;4.50
72031;PMS5003;49185;42.320;23.198;2023-01-29T12:52:40;15.00;14.00;5.00
72031;PMS5003;49185;42.320;23.198;2023-01-29T13:00:21;14.00;12.25;5.00
72031;PMS5003;49185;42.320;23.198;2023-01-29T13:05:23;14.25;13.00;4.00
72031;PMS5003;49185;42.320;23.198;2023-01-29T13:08:53;16.00;14.50;5.75
72031;PMS5003;49185;42.320;23.198;2023-01-29T13:11:07;15.00;14.00;6.75
72031;PMS5003;49185;42.320;23.198;2023-01-29T13:16:11;14.00;14.00;3.00
72031;PMS5003;49185;42.320;23.198;2023-01-29T13:21:11;14.00;14.00;5.00
72031;PMS5003;49185;42.320;23.198;2023-01-29T13:23:45;15.00;14.00;7.00
72031;PMS5003;49185;42.320;23.198;2023-01-29T13:26:17;18.25;14.50;7.00
72031;PMS5003;49185;42.320;23.198;2023-01-29T13:28:44;20.75;18.00;7.00
72031;PMS5003;49185;42.320;23.198;2023-01-29T13:33:35;18.33;16.67;8.00
72031;PMS5003;49185;42.320;23.198;2023-01-29T13:36:02;20.75;18.00;10.00
72031;PMS5003;49185;42.320;23.198;2023-01-29T13:38:29;21.00;19.00;10.00
72031;PMS5003;49185;42.320;23.198;2023-01-29T13:41:04;25.00;21.50;10.50
72031;PMS5003;49185;42.320;23.198;2023-01-29T13:43:35;22.75;19.00;10.50
72031;PMS5003;49185;42.320;23.198;2023-01-29T13:46:07;21.00;19.00;10.25
72031;PMS5003;49185;42.320;23.198;2023-01-29T13:48:44;19.50;18.00;10.00
72031;PMS5003;49185;42.320;23.198;2023-01-29T13:51:13;22.00;18.00;10.50
72031;PMS5003;49185;42.320;23.198;2023-01-29T13:53:50;24.00;21.00;11.00
72031;PMS5003;49185;42.320;23.198;2023-01-29T13:58:58;19.50;18.00;7.00
72031;PMS5003;49185;42.320;23.198;2023-01-29T14:02:28;18.50;18.50;8.00
72031;PMS5003;49185;42.320;23.198;2023-01-29T14:04:27;18.00;17.00;8.00
72031;PMS5003;49185;42.320;23.198;2023-01-29T14:06:54;19.50;18.00;7.25
72031;PMS5003;49185;42.320;23.198;2023-01-29T14:11:55;29.25;24.00;12.50
72031;PMS5003;49185;42.320;23.198;2023-01-29T14:17:14;25.50;22.50;14.00
72031;PMS5003;49185;42.320;23.198;2023-01-29T14:19:53;25.50;23.75;14.50
72031;PMS5003;49185;42.320;23.198;2023-01-29T14:22:40;22.00;21.75;13.50
72031;PMS5003;49185;42.320;23.198;2023-01-29T14:25:15;18.00;17.00;8.50
72031;PMS5003;49185;42.320;23.198;2023-01-29T14:27:49;18.00;17.00;7.00
72031;PMS5003;49185;42.320;23.198;2023-01-29T14:30:17;21.00;18.75;9.50
72031;PMS5003;49185;42.320;23.198;2023-01-29T14:32:46;16.50;15.00;7.00
72031;PMS5003;49185;42.320;23.198;2023-01-29T14:35:21;27.00;19.50;9.50
72031;PMS5003;49185;42.320;23.198;2023-01-29T14:37:50;28.00;23.25;13.75
72031;PMS5003;49185;42.320;23.198;2023-01-29T14:45:22;29.50;25.00;15.00
72031;PMS5003;49185;42.320;23.198;2023-01-29T14:52:58;18.50;15.00;7.00
72031;PMS5003;49185;42.320;23.198;2023-01-29T14:55:44;16.25;14.00;6.00
72031;PMS5003;49185;42.320;23.198;2023-01-29T14:58:16;17.50;16.50;7.00
72031;PMS5003;49185;42.320;23.198;2023-01-29T15:00:50;17.25;16.00;6.50
72031;PMS5003;49185;42.320;23.198;2023-01-29T15:03:21;16.00;14.00;6.00
72031;PMS5003;49185;42.320;23.198;2023-01-29T15:05:56;16.50;14.00;6.00
72031;PMS5003;49185;42.320;23.198;2023-01-29T15:11:02;14.00;14.00;5.00
72031;PMS5003;49185;42.320;23.198;2023-01-29T15:13:37;14.50;13.50;5.00
72031;PMS5003;49185;42.320;23.198;2023-01-29T15:16:30;16.25;14.00;6.00
72031;PMS5003;49185;42.320;23.198;2023-01-29T15:19:37;17.00;15.00;6.00
72031;PMS5003;49185;42.320;23.198;2023-01-29T15:24:37;16.25;15.00;6.50
72031;PMS5003;49185;42.320;23.198;2023-01-29T15:27:05;17.50;16.00;7.00
72031;PMS5003;49185;42.320;23.198;2023-01-29T15:29:35;16.00;15.00;6.00
72031;PMS5003;49185;42.320;23.198;2023-01-29T15:32:03;14.00;14.00;3.50
72031;PMS5003;49185;42.320;23.198;2023-01-29T15:34:30;14.00;13.50;4.00
72031;PMS5003;49185;42.320;23.198;2023-01-29T15:36:55;15.00;13.33;4.00
72031;PMS5003;49185;42.320;23.198;2023-01-29T15:39:22;16.00;13.00;4.00
72031;PMS5003;49185;42.320;23.198;2023-01-29T15:41:49;13.75;13.00;4.00
72031;PMS5003;49185;42.320;23.198;2023-01-29T15:44:24;17.00;15.25;7.50
72031;PMS5003;49185;42.320;23.198;2023-01-29T15:46:51;20.50;18.25;7.25
72031;PMS5003;49185;42.320;23.198;2023-01-29T15:49:24;20.00;19.00;6.50
72031;PMS5003;49185;42.320;23.198;2023-01-29T15:51:58;20.25;17.00;7.00
72031;PMS5003;49185;42.320;23.198;2023-01-29T15:54:31;20.50;17.50;9.50
72031;PMS5003;49185;42.320;23.198;2023-01-29T15:56:59;19.75;17.00;8.50
72031;PMS5003;49185;42.320;23.198;2023-01-29T15:59:31;16.00;14.75;5.25
72031;PMS5003;49185;42.320;23.198;2023-01-29T16:04:58;16.50;14.50;6.00
72031;PMS5003;49185;42.320;23.198;2023-01-29T16:07:24;17.00;15.00;6.33
72031;PMS5003;49185;42.320;23.198;2023-01-29T16:09:51;18.25;15.50;6.50
72031;PMS5003;49185;42.320;23.198;2023-01-29T16:12:17;20.00;16.50;6.00
72031;PMS5003;49185;42.320;23.198;2023-01-29T16:14:43;18.00;16.50;6.00
72031;PMS5003;49185;42.320;23.198;2023-01-29T16:19:59;20.25;17.25;7.00
72031;PMS5003;49185;42.320;23.198;2023-01-29T16:22:31;20.50;18.25;9.75
72031;PMS5003;49185;42.320;23.198;2023-01-29T16:25:02;17.00;16.00;7.00
72031;PMS5003;49185;42.320;23.198;2023-01-29T16:27:36;20.50;18.00;9.00
72031;PMS5003;49185;42.320;23.198;2023-01-29T16:30:03;17.00;17.00;6.50
72031;PMS5003;49185;42.320;23.198;2023-01-29T16:32:29;19.75;18.75;7.00
72031;PMS5003;49185;42.320;23.198;2023-01-29T16:34:56;21.00;19.00;7.50
72031;PMS5003;49185;42.320;23.198;2023-01-29T16:37:30;21.25;18.00;8.00
72031;PMS5003;49185;42.320;23.198;2023-01-29T16:39:58;20.00;17.00;7.00
72031;PMS5003;49185;42.320;23.198;2023-01-29T16:42:27;17.67;17.00;6.33
72031;PMS5003;49185;42.320;23.198;2023-01-29T16:47:26;18.00;17.00;8.00
72031;PMS5003;49185;42.320;23.198;2023-01-29T16:50:39;20.00;16.50;7.50